createdAt,value
2022-10-18T00:01:02.288Z,98960.88
2022-10-18T00:03:39.753Z,98961.95
2022-10-18T00:06:11.956Z,98962.21
2022-10-18T00:08:40.016Z,98964.52
2022-10-18T00:11:08.122Z,98964.02
2022-10-18T00:13:36.412Z,98968.38
2022-10-18T00:16:10.247Z,98965.52
2022-10-18T00:18:38.107Z,98966.54
2022-10-18T00:21:08.664Z,98967.10
2022-10-18T00:23:36.807Z,98966.09
2022-10-18T00:26:14.699Z,98966.73
2022-10-18T00:28:43.335Z,98966.48
2022-10-18T00:31:18.484Z,98969.06
2022-10-18T00:33:49.609Z,98969.31
2022-10-18T00:36:17.810Z,98961.73
2022-10-18T00:38:46.243Z,98959.70
2022-10-18T00:41:20.018Z,98958.67
2022-10-18T00:43:58.838Z,98959.15
2022-10-18T00:46:30.594Z,98963.98
2022-10-18T00:49:01.534Z,98963.98
2022-10-18T00:51:35.930Z,98967.20
2022-10-18T00:54:04.507Z,98964.95
2022-10-18T00:56:33.679Z,98965.31
2022-10-18T00:59:01.865Z,98960.42
2022-10-18T01:01:29.953Z,98956.98
2022-10-18T01:03:58.139Z,98955.33
2022-10-18T01:06:28.356Z,98958.38
2022-10-18T01:09:07.934Z,98958.48
2022-10-18T01:11:44.837Z,98958.41
2022-10-18T01:14:27.001Z,98957.50
2022-10-18T01:16:57.724Z,98953.79
2022-10-18T01:19:48.548Z,98952.22
2022-10-18T01:22:27.821Z,98951.84
2022-10-18T01:24:58.705Z,98953.02
2022-10-18T01:27:43.337Z,98951.18
2022-10-18T01:30:38.183Z,98953.00
2022-10-18T01:33:20.537Z,98952.63
2022-10-18T01:35:55.105Z,98952.41
2022-10-18T01:38:25.525Z,98951.83
2022-10-18T01:40:55.567Z,98952.13
2022-10-18T01:43:25.122Z,98945.89
2022-10-18T01:45:55.818Z,98943.05
2022-10-18T01:48:24.099Z,98940.94
2022-10-18T01:50:52.806Z,98939.61
2022-10-18T01:53:26.542Z,98939.17
2022-10-18T01:56:41.837Z,98938.83
2022-10-18T01:59:09.595Z,98936.46
2022-10-18T02:01:46.998Z,98930.83
2022-10-18T02:04:34.149Z,98931.33
2022-10-18T02:07:09.850Z,98934.92
2022-10-18T02:09:46.832Z,98933.60
2022-10-18T02:12:16.849Z,98932.16
2022-10-18T02:14:45.893Z,98923.55
2022-10-18T02:17:16.321Z,98928.70
2022-10-18T02:19:53.970Z,98923.34
2022-10-18T02:22:25.748Z,98922.99
2022-10-18T02:24:57.610Z,98923.61
2022-10-18T02:27:25.859Z,98920.98
2022-10-18T02:29:54.147Z,98925.07
2022-10-18T02:32:32.830Z,98921.84
2022-10-18T02:35:11.338Z,98920.97
2022-10-18T02:37:40.492Z,98919.85
2022-10-18T02:40:10.572Z,98917.73
2022-10-18T02:42:48.144Z,98913.58
2022-10-18T02:45:16.954Z,98913.65
2022-10-18T02:47:44.963Z,98912.45
2022-10-18T02:50:13.385Z,98914.08
2022-10-18T02:52:41.285Z,98917.45
2022-10-18T02:55:09.726Z,98921.37
2022-10-18T02:57:37.873Z,98919.77
2022-10-18T03:00:06.895Z,98913.63
2022-10-18T03:02:34.902Z,98913.66
2022-10-18T03:05:03.063Z,98911.75
2022-10-18T03:07:31.312Z,98912.85
2022-10-18T03:09:59.418Z,98914.05
2022-10-18T03:12:27.453Z,98913.46
2022-10-18T03:14:55.339Z,98913.43
2022-10-18T03:17:23.264Z,98911.80
2022-10-18T03:19:51.307Z,98909.65
2022-10-18T03:22:19.460Z,98914.92
2022-10-18T03:24:47.913Z,98912.41
2022-10-18T03:27:15.743Z,98910.45
2022-10-18T03:29:43.592Z,98916.64
2022-10-18T03:32:11.464Z,98913.83
2022-10-18T03:34:39.348Z,98916.69
2022-10-18T03:37:07.869Z,98913.33
2022-10-18T03:39:35.737Z,98912.73
2022-10-18T03:42:03.625Z,98911.23
2022-10-18T03:44:31.515Z,98911.21
2022-10-18T03:46:59.438Z,98909.79
2022-10-18T03:49:27.343Z,98912.07
2022-10-18T03:51:55.220Z,98912.89
2022-10-18T03:54:23.038Z,98913.69
2022-10-18T03:56:50.896Z,98913.72
2022-10-18T03:59:18.796Z,98909.93
2022-10-18T04:01:46.757Z,98908.48
2022-10-18T04:04:15.047Z,98915.21
2022-10-18T04:06:42.936Z,98916.25
2022-10-18T04:09:10.805Z,98916.34
2022-10-18T04:11:38.685Z,98914.73
2022-10-18T04:14:06.799Z,98908.30
2022-10-18T04:19:07.431Z,98907.52
2022-10-18T04:21:35.445Z,98907.66
2022-10-18T04:24:03.920Z,98910.21
2022-10-18T04:26:31.926Z,98917.04
2022-10-18T04:28:59.812Z,98915.55
2022-10-18T04:31:27.742Z,98916.75
2022-10-18T04:33:55.675Z,98916.98
2022-10-18T04:36:23.516Z,98920.27
2022-10-18T04:38:51.479Z,98919.52
2022-10-18T04:41:19.288Z,98920.36
2022-10-18T04:43:47.168Z,98926.48
2022-10-18T04:46:15.013Z,98926.20
2022-10-18T04:48:42.844Z,98926.05
2022-10-18T04:51:10.679Z,98925.10
2022-10-18T04:53:38.619Z,98925.61
2022-10-18T04:56:07.058Z,98927.84
2022-10-18T04:58:34.995Z,98932.11
2022-10-18T05:01:07.309Z,98931.46
2022-10-18T05:03:35.703Z,98929.14
2022-10-18T05:06:03.817Z,98927.26
2022-10-18T05:08:34.001Z,98927.08
2022-10-18T05:11:03.426Z,98922.76
2022-10-18T05:13:31.551Z,98924.23
2022-10-18T05:16:00.482Z,98926.04
2022-10-18T05:18:28.557Z,98926.02
2022-10-18T05:21:02.239Z,98927.29
2022-10-18T05:23:30.275Z,98928.48
2022-10-18T05:26:02.348Z,98935.31
2022-10-18T05:28:45.655Z,98929.13
2022-10-18T05:31:13.610Z,98923.49
2022-10-18T05:33:41.450Z,98924.11
2022-10-18T05:36:10.285Z,98922.54
2022-10-18T05:38:42.273Z,98926.02
2022-10-18T05:41:10.701Z,98926.23
2022-10-18T05:43:39.560Z,98926.13
2022-10-18T05:46:13.608Z,98917.77
2022-10-18T05:48:51.056Z,98912.98
2022-10-18T05:51:19.308Z,98913.33
2022-10-18T05:53:47.300Z,98915.95
2022-10-18T05:56:15.099Z,98918.90
2022-10-18T05:58:43.187Z,98919.30
2022-10-18T06:01:11.101Z,98913.70
2022-10-18T06:03:39.004Z,98917.50
2022-10-18T06:06:10.740Z,98917.84
2022-10-18T06:08:40.649Z,98917.59
2022-10-18T06:11:12.989Z,98919.11
2022-10-18T06:13:42.873Z,98921.55
2022-10-18T06:16:12.114Z,98921.40
2022-10-18T06:18:40.617Z,98920.81
2022-10-18T06:21:09.417Z,98924.00
2022-10-18T06:23:37.312Z,98916.73
2022-10-18T06:26:07.650Z,98917.77
2022-10-18T06:28:36.684Z,98920.62
2022-10-18T06:31:06.279Z,98925.02
2022-10-18T06:33:35.537Z,98926.23
2022-10-18T06:36:13.085Z,98925.12
2022-10-18T06:38:41.423Z,98924.46
2022-10-18T06:41:09.898Z,98927.27
2022-10-18T06:43:37.825Z,98929.67
2022-10-18T06:46:08.425Z,98929.42
2022-10-18T06:48:37.226Z,98933.44
2022-10-18T06:51:06.964Z,98933.17
2022-10-18T06:53:43.807Z,98930.95
2022-10-18T06:56:16.513Z,98934.05
2022-10-18T06:58:44.606Z,98929.77
2022-10-18T07:01:16.315Z,98929.99
2022-10-18T07:03:45.793Z,98929.01
2022-10-18T07:06:15.612Z,98925.74
2022-10-18T07:08:44.099Z,98923.90
2022-10-18T07:11:20.873Z,98920.86
2022-10-18T07:13:48.713Z,98920.41
2022-10-18T07:16:18.959Z,98917.70
2022-10-18T07:18:51.146Z,98915.92
2022-10-18T07:21:21.476Z,98916.84
2022-10-18T07:23:50.098Z,98915.60
2022-10-18T07:26:29.955Z,98915.83
2022-10-18T07:29:16.060Z,98923.22
2022-10-18T07:31:43.939Z,98921.63
2022-10-18T07:34:13.229Z,98921.44
2022-10-18T07:36:41.552Z,98920.69
2022-10-18T07:39:10.253Z,98919.04
2022-10-18T07:41:38.310Z,98926.48
2022-10-18T07:44:06.401Z,98926.45
2022-10-18T07:46:34.464Z,98926.77
2022-10-18T07:49:02.344Z,98921.41
2022-10-18T07:51:32.874Z,98921.02
2022-10-18T07:54:00.727Z,98921.10
2022-10-18T07:56:28.647Z,98924.50
2022-10-18T07:58:57.158Z,98924.13
2022-10-18T08:01:25.739Z,98917.55
2022-10-18T08:03:54.778Z,98912.05
2022-10-18T08:06:23.636Z,98909.70
2022-10-18T08:08:52.402Z,98911.36
2022-10-18T08:11:22.992Z,98907.17
2022-10-18T08:13:51.777Z,98904.34
2022-10-18T08:16:22.570Z,98901.52
2022-10-18T08:18:51.128Z,98900.45
2022-10-18T08:21:20.919Z,98900.19
2022-10-18T08:23:49.293Z,98895.53
2022-10-18T08:26:20.596Z,98893.06
2022-10-18T08:28:54.130Z,98888.82
2022-10-18T08:31:26.764Z,98886.60
2022-10-18T08:33:57.139Z,98883.40
2022-10-18T08:36:25.262Z,98876.27
2022-10-18T08:38:53.110Z,98874.52
2022-10-18T08:41:29.807Z,98867.23
2022-10-18T08:44:16.525Z,98868.48
2022-10-18T08:46:51.106Z,98865.38
2022-10-18T08:49:30.257Z,98862.04
2022-10-18T08:51:58.677Z,98861.02
2022-10-18T08:54:39.655Z,98858.52
2022-10-18T08:57:15.824Z,98859.29
2022-10-18T08:59:44.259Z,98860.48
2022-10-18T09:02:54.573Z,98858.52
2022-10-18T09:05:30.784Z,98859.54
2022-10-18T09:08:09.741Z,98853.79
2022-10-18T09:10:49.539Z,98852.16
2022-10-18T09:13:55.332Z,98847.29
2022-10-18T09:16:32.534Z,98841.41
2022-10-18T09:19:21.830Z,98843.96
2022-10-18T09:22:00.953Z,98840.55
2022-10-18T09:24:46.560Z,98839.58
2022-10-18T09:27:18.342Z,98837.36
2022-10-18T09:30:05.549Z,98836.11
2022-10-18T09:32:43.516Z,98841.86
2022-10-18T09:35:19.610Z,98839.92
2022-10-18T09:37:47.699Z,98838.77
2022-10-18T09:40:29.109Z,98835.16
2022-10-18T09:43:01.442Z,98833.74
2022-10-18T09:45:33.164Z,98833.48
2022-10-18T09:48:08.725Z,98828.21
2022-10-18T09:50:55.410Z,98821.04
2022-10-18T09:53:54.642Z,98815.79
2022-10-18T09:56:29.732Z,98810.98
2022-10-18T09:58:57.598Z,98805.36
2022-10-18T10:01:28.913Z,98799.92
2022-10-18T10:03:57.227Z,98800.57
2022-10-18T10:06:26.813Z,98799.77
2022-10-18T10:08:59.868Z,98796.67
2022-10-18T10:11:45.913Z,98796.48
2022-10-18T10:14:23.158Z,98793.11
2022-10-18T10:16:54.031Z,98793.36
2022-10-18T10:19:27.692Z,98789.89
2022-10-18T10:22:00.703Z,98787.81
2022-10-18T10:24:47.570Z,98782.85
2022-10-18T10:27:24.777Z,98770.48
2022-10-18T10:29:57.695Z,98773.58
2022-10-18T10:32:30.110Z,98766.23
2022-10-18T10:34:58.843Z,98766.73
2022-10-18T10:37:32.090Z,98761.31
2022-10-18T10:40:19.802Z,98759.56
2022-10-18T10:43:08.723Z,98753.71
2022-10-18T10:46:10.170Z,98746.25
2022-10-18T10:48:47.515Z,98744.16
2022-10-18T10:51:18.929Z,98736.04
2022-10-18T10:54:01.214Z,98731.90
2022-10-18T10:56:32.672Z,98727.19
2022-10-18T10:59:15.923Z,98727.61
2022-10-18T11:01:45.300Z,98724.17
2022-10-18T11:04:29.541Z,98719.00
2022-10-18T11:07:04.586Z,98713.95
2022-10-18T11:10:10.848Z,98707.02
2022-10-18T11:12:47.896Z,98703.99
2022-10-18T11:15:40.460Z,98695.02
2022-10-18T11:18:19.792Z,98695.67
2022-10-18T11:20:53.108Z,98689.41
2022-10-18T11:23:25.646Z,98686.98
2022-10-18T11:25:56.358Z,98683.63
2022-10-18T11:28:32.894Z,98681.79
2022-10-18T11:31:21.339Z,98675.27
2022-10-18T11:34:10.413Z,98673.45
2022-10-18T11:36:45.324Z,98670.57
2022-10-18T11:39:42.168Z,98672.70
2022-10-18T11:42:44.446Z,98660.94
2022-10-18T11:45:45.759Z,98664.39
2022-10-18T11:48:34.477Z,98661.70
2022-10-18T11:51:10.585Z,98658.21
2022-10-18T11:54:03.319Z,98656.20
2022-10-18T11:56:48.737Z,98656.92
2022-10-18T11:59:25.708Z,98640.48
2022-10-18T12:02:16.097Z,98645.36
2022-10-18T12:04:59.833Z,98640.30
2022-10-18T12:07:53.367Z,98637.31
2022-10-18T12:10:31.724Z,98634.84
2022-10-18T12:13:23.466Z,98629.79
2022-10-18T12:15:52.290Z,98620.41
2022-10-18T12:18:23.842Z,98616.09
2022-10-18T12:20:55.450Z,98609.91
2022-10-18T12:23:33.445Z,98608.86
2022-10-18T12:26:04.086Z,98598.77
2022-10-18T12:28:38.455Z,98592.96
2022-10-18T12:31:25.666Z,98589.73
2022-10-18T12:33:58.877Z,98585.35
2022-10-18T12:36:57.567Z,98583.42
2022-10-18T12:39:43.381Z,98578.23
2022-10-18T12:42:20.209Z,98582.95
2022-10-18T12:44:49.258Z,98576.06
2022-10-18T12:47:25.626Z,98570.83
2022-10-18T12:49:59.087Z,98562.17
2022-10-18T12:52:29.987Z,98558.30
2022-10-18T12:55:21.142Z,98552.30
2022-10-18T12:57:52.100Z,98544.02
2022-10-18T13:00:31.967Z,98546.73
2022-10-18T13:03:18.134Z,98541.90
2022-10-18T13:05:54.737Z,98537.99
2022-10-18T13:08:29.284Z,98532.51
2022-10-18T13:11:09.131Z,98535.45
2022-10-18T13:13:52.929Z,98533.42
2022-10-18T13:16:20.839Z,98527.83
2022-10-18T13:18:59.697Z,98526.44
2022-10-18T13:21:42.775Z,98526.13
2022-10-18T13:24:30.547Z,98528.13
2022-10-18T13:27:35.933Z,98527.29
2022-10-18T13:30:42.067Z,98518.98
2022-10-18T13:33:35.630Z,98520.09
2022-10-18T13:36:22.914Z,98511.52
2022-10-18T13:38:55.933Z,98511.98
2022-10-18T13:41:47.057Z,98515.09
2022-10-18T13:44:28.856Z,98514.06
2022-10-18T13:46:56.619Z,98509.98
2022-10-18T13:49:39.791Z,98512.03
2022-10-18T13:52:38.203Z,98510.48
2022-10-18T13:55:21.367Z,98497.77
2022-10-18T13:58:04.303Z,98494.09
2022-10-18T14:01:02.307Z,98492.59
2022-10-18T14:04:01.679Z,98494.14
2022-10-18T14:06:37.397Z,98491.31
2022-10-18T14:09:45.305Z,98489.99
2022-10-18T14:12:28.998Z,98488.65
2022-10-18T14:15:05.820Z,98487.18
2022-10-18T14:17:44.848Z,98483.23
2022-10-18T14:20:29.433Z,98482.92
2022-10-18T14:23:14.114Z,98476.10
2022-10-18T14:25:42.730Z,98478.06
2022-10-18T14:28:15.096Z,98472.14
2022-10-18T14:31:06.358Z,98465.97
2022-10-18T14:33:48.082Z,98463.80
2022-10-18T14:36:22.423Z,98463.85
2022-10-18T14:39:05.704Z,98460.88
2022-10-18T14:41:35.857Z,98457.88
2022-10-18T14:44:31.542Z,98455.45
2022-10-18T14:47:13.114Z,98458.36
2022-10-18T14:49:45.770Z,98454.28
2022-10-18T14:52:17.458Z,98454.56
2022-10-18T14:54:45.988Z,98456.18
2022-10-18T14:57:24.517Z,98455.41
2022-10-18T15:00:02.051Z,98451.27
2022-10-18T15:02:32.715Z,98451.45
2022-10-18T15:05:21.190Z,98443.33
2022-10-18T15:07:51.980Z,98448.13
2022-10-18T15:10:27.465Z,98446.34
2022-10-18T15:13:16.745Z,98444.11
2022-10-18T15:15:45.128Z,98440.41
2022-10-18T15:18:21.447Z,98436.58
2022-10-18T15:21:08.339Z,98435.17
2022-10-18T15:23:36.320Z,98433.02
2022-10-18T15:26:11.195Z,98427.92
2022-10-18T15:28:53.155Z,98429.08
2022-10-18T15:31:26.544Z,98428.14
2022-10-18T15:34:07.839Z,98426.80
2022-10-18T15:36:36.085Z,98426.71
2022-10-18T15:39:15.455Z,98426.10
2022-10-18T15:41:50.537Z,98423.29
2022-10-18T15:44:23.082Z,98422.24
2022-10-18T15:46:56.867Z,98426.85
2022-10-18T15:49:24.728Z,98422.27
2022-10-18T15:52:17.081Z,98421.73
2022-10-18T15:54:44.874Z,98418.91
2022-10-18T15:57:13.120Z,98420.09
2022-10-18T15:59:54.091Z,98426.25
2022-10-18T16:02:22.017Z,98428.43
2022-10-18T16:04:50.017Z,98427.98
2022-10-18T16:07:17.817Z,98427.11
2022-10-18T16:09:45.741Z,98428.16
2022-10-18T16:12:16.238Z,98424.21
2022-10-18T16:14:44.089Z,98421.67
2022-10-18T16:17:17.020Z,98422.54
2022-10-18T16:19:44.868Z,98427.71
2022-10-18T16:24:46.045Z,98430.79
2022-10-18T16:27:14.811Z,98435.08
2022-10-18T16:29:42.695Z,98433.54
2022-10-18T16:32:10.507Z,98435.92
2022-10-18T16:34:38.341Z,98435.74
2022-10-18T16:37:06.540Z,98438.30
2022-10-18T16:39:35.462Z,98439.43
2022-10-18T16:42:03.557Z,98445.91
2022-10-18T16:44:31.542Z,98442.20
2022-10-18T16:46:59.526Z,98442.81
2022-10-18T16:49:27.415Z,98442.23
2022-10-18T16:51:55.712Z,98442.85
2022-10-18T16:54:23.717Z,98444.13
2022-10-18T16:56:51.643Z,98448.14
2022-10-18T16:59:37.423Z,98449.23
2022-10-18T17:02:09.170Z,98449.80
2022-10-18T17:04:36.957Z,98457.77
2022-10-18T17:07:05.264Z,98454.38
2022-10-18T17:09:34.981Z,98454.03
2022-10-18T17:12:02.808Z,98456.11
2022-10-18T17:14:30.726Z,98462.41
2022-10-18T17:17:52.345Z,98460.77
2022-10-18T17:20:24.355Z,98469.77
2022-10-18T17:22:54.014Z,98469.48
2022-10-18T17:28:05.033Z,98475.20
2022-10-18T17:30:34.060Z,98471.98
2022-10-18T17:33:01.876Z,98476.67
2022-10-18T17:35:30.019Z,98472.90
2022-10-18T17:37:57.935Z,98471.61
2022-10-18T17:40:25.770Z,98473.02
2022-10-18T17:42:54.537Z,98474.70
2022-10-18T17:45:22.645Z,98472.54
2022-10-18T17:47:50.533Z,98471.80
2022-10-18T17:50:18.758Z,98476.97
2022-10-18T17:52:48.015Z,98476.56
2022-10-18T17:55:16.465Z,98475.91
2022-10-18T17:57:44.334Z,98475.26
2022-10-18T18:00:13.098Z,98467.92
2022-10-18T18:02:42.737Z,98473.71
2022-10-18T18:05:11.030Z,98471.88
2022-10-18T18:07:38.846Z,98477.52
2022-10-18T18:10:06.897Z,98480.32
2022-10-18T18:12:35.049Z,98479.26
2022-10-18T18:15:03.580Z,98480.21
2022-10-18T18:17:34.494Z,98481.14
2022-10-18T18:20:14.184Z,98478.90
2022-10-18T18:22:44.222Z,98482.95
2022-10-18T18:25:12.415Z,98487.82
2022-10-18T18:27:40.914Z,98482.65
2022-10-18T18:30:09.033Z,98476.72
2022-10-18T18:32:37.932Z,98473.81
2022-10-18T18:35:06.113Z,98474.81
2022-10-18T18:37:33.970Z,98468.19
2022-10-18T18:40:01.847Z,98469.09
2022-10-18T18:42:29.768Z,98472.30
2022-10-18T18:44:57.709Z,98468.86
2022-10-18T18:47:27.181Z,98475.90
2022-10-18T18:49:54.983Z,98473.21
2022-10-18T18:52:23.008Z,98480.16
2022-10-18T18:54:50.823Z,98474.40
2022-10-18T18:57:18.672Z,98478.73
2022-10-18T18:59:46.538Z,98482.61
2022-10-18T19:02:14.411Z,98479.42
2022-10-18T19:04:42.414Z,98483.44
2022-10-18T19:07:10.306Z,98485.46
2022-10-18T19:09:40.114Z,98480.18
2022-10-18T19:12:08.102Z,98484.19
2022-10-18T19:14:35.993Z,98481.19
2022-10-18T19:17:07.162Z,98480.70
2022-10-18T19:19:35.219Z,98482.33
2022-10-18T19:22:08.467Z,98482.94
2022-10-18T19:24:36.564Z,98480.67
2022-10-18T19:27:11.865Z,98487.33
2022-10-18T19:29:40.977Z,98489.13
2022-10-18T19:32:13.466Z,98486.50
2022-10-18T19:34:41.645Z,98490.09
2022-10-18T19:37:12.203Z,98496.96
2022-10-18T19:39:40.107Z,98495.72
2022-10-18T19:42:14.715Z,98498.21
2022-10-18T19:44:45.241Z,98497.92
2022-10-18T19:47:14.438Z,98503.89
2022-10-18T19:49:43.106Z,98515.71
2022-10-18T19:52:12.421Z,98514.30
2022-10-18T19:54:40.363Z,98525.30
2022-10-18T19:57:08.342Z,98526.60
2022-10-18T19:59:36.285Z,98531.81
2022-10-18T20:02:04.843Z,98537.91
2022-10-18T20:04:34.926Z,98540.91
2022-10-18T20:07:03.024Z,98542.30
2022-10-18T20:09:31.107Z,98534.31
2022-10-18T20:11:59.021Z,98540.82
2022-10-18T20:14:26.891Z,98546.14
2022-10-18T20:16:54.768Z,98542.37
2022-10-18T20:19:22.617Z,98544.43
2022-10-18T20:21:50.465Z,98553.60
2022-10-18T20:24:18.402Z,98559.33
2022-10-18T20:26:46.273Z,98568.38
2022-10-18T20:29:14.396Z,98572.14
2022-10-18T20:31:42.274Z,98578.02
2022-10-18T20:34:12.021Z,98587.55
2022-10-18T20:36:40.518Z,98598.73
2022-10-18T20:39:09.189Z,98600.08
2022-10-18T20:41:41.142Z,98597.49
2022-10-18T20:44:14.019Z,98595.84
2022-10-18T20:46:42.500Z,98590.77
2022-10-18T20:49:13.815Z,98587.48
2022-10-18T20:51:42.246Z,98594.08
2022-10-18T20:54:10.894Z,98597.98
2022-10-18T20:56:39.195Z,98601.56
2022-10-18T20:59:09.839Z,98604.23
2022-10-18T21:01:39.586Z,98609.43
2022-10-18T21:04:09.662Z,98610.59
2022-10-18T21:06:41.132Z,98614.80
2022-10-18T21:09:20.188Z,98618.20
2022-10-18T21:11:50.469Z,98613.65
2022-10-18T21:14:20.749Z,98618.77
2022-10-18T21:16:50.441Z,98617.20
2022-10-18T21:19:26.821Z,98615.77
2022-10-18T21:21:56.940Z,98609.30
2022-10-18T21:24:25.933Z,98617.33
2022-10-18T21:26:54.855Z,98619.52
2022-10-18T21:29:27.050Z,98622.62
2022-10-18T21:31:56.022Z,98627.42
2022-10-18T21:34:23.933Z,98629.42
2022-10-18T21:36:51.865Z,98635.48
2022-10-18T21:41:50.769Z,98631.98
2022-10-18T21:44:18.708Z,98625.48
2022-10-18T21:46:46.984Z,98618.69
2022-10-18T21:49:15.742Z,98616.61
2022-10-18T21:51:44.063Z,98618.02
2022-10-18T21:54:14.573Z,98619.67
2022-10-18T21:56:42.748Z,98620.88
2022-10-18T21:59:14.228Z,98618.70
2022-10-18T22:01:44.253Z,98618.92
2022-10-18T22:04:24.014Z,98622.60
2022-10-18T22:06:52.236Z,98611.56
2022-10-18T22:09:21.430Z,98612.09
2022-10-18T22:11:52.305Z,98618.84
2022-10-18T22:14:20.933Z,98614.61
2022-10-18T22:16:48.840Z,98616.10
2022-10-18T22:19:16.899Z,98621.72
2022-10-18T22:21:44.796Z,98622.19
2022-10-18T22:24:12.649Z,98622.30
2022-10-18T22:26:42.569Z,98620.11
2022-10-18T22:29:16.818Z,98614.25
2022-10-18T22:31:47.329Z,98613.17
2022-10-18T22:34:19.021Z,98610.66
2022-10-18T22:36:46.878Z,98607.08
2022-10-18T22:39:15.670Z,98608.07
2022-10-18T22:41:44.066Z,98611.32
2022-10-18T22:44:13.457Z,98607.56
2022-10-18T22:46:42.102Z,98610.41
2022-10-18T22:49:11.648Z,98613.32
2022-10-18T22:51:40.476Z,98610.89
2022-10-18T22:54:08.863Z,98610.36
2022-10-18T22:56:36.727Z,98614.35
2022-10-18T22:59:04.543Z,98619.77
2022-10-18T23:01:32.434Z,98620.44
2022-10-18T23:04:01.220Z,98626.44
2022-10-18T23:06:31.937Z,98630.85
2022-10-18T23:09:02.404Z,98631.88
2022-10-18T23:11:30.523Z,98631.48
2022-10-18T23:13:58.970Z,98637.63
2022-10-18T23:16:27.828Z,98639.33
2022-10-18T23:18:57.523Z,98643.42
2022-10-18T23:21:28.135Z,98640.52
2022-10-18T23:23:56.977Z,98638.27
2022-10-18T23:26:27.545Z,98640.00
2022-10-18T23:28:55.870Z,98636.82
2022-10-18T23:31:29.690Z,98635.95
2022-10-18T23:34:00.424Z,98631.76
2022-10-18T23:36:28.465Z,98632.26
2022-10-18T23:38:56.647Z,98629.77
2022-10-18T23:41:25.126Z,98629.02
2022-10-18T23:43:53.628Z,98626.83
2022-10-18T23:46:22.020Z,98623.67
2022-10-18T23:48:50.323Z,98622.45
2022-10-18T23:51:18.356Z,98625.22
2022-10-18T23:53:46.566Z,98627.85
2022-10-18T23:56:16.392Z,98623.55
2022-10-18T23:58:45.252Z,98621.35
